sensor_id;sensor_type;location;lat;lon;timestamp;P1;durP1;ratioP1;P2;durP2;ratioP2
10511;SDS011;5304;48.604;2.096;2023-04-16T00:00:36;16.13;;;9.77;;
10511;SDS011;5304;48.604;2.096;2023-04-16T00:03:21;17.67;;;10.03;;
10511;SDS011;5304;48.604;2.096;2023-04-16T00:06:06;18.17;;;10.43;;
10511;SDS011;5304;48.604;2.096;2023-04-16T00:08:50;18.50;;;10.00;;
10511;SDS011;5304;48.604;2.096;2023-04-16T00:11:35;18.10;;;10.53;;
10511;SDS011;5304;48.604;2.096;2023-04-16T00:14:20;19.63;;;11.77;;
10511;SDS011;5304;48.604;2.096;2023-04-16T00:17:04;16.87;;;10.93;;
10511;SDS011;5304;48.604;2.096;2023-04-16T00:19:49;25.40;;;11.73;;
10511;SDS011;5304;48.604;2.096;2023-04-16T00:22:33;15.67;;;11.00;;
10511;SDS011;5304;48.604;2.096;2023-04-16T00:25:17;17.77;;;11.37;;
10511;SDS011;5304;48.604;2.096;2023-04-16T00:28:04;13.63;;;10.00;;
10511;SDS011;5304;48.604;2.096;2023-04-16T00:30:48;18.50;;;10.17;;
10511;SDS011;5304;48.604;2.096;2023-04-16T00:33:33;17.53;;;10.63;;
10511;SDS011;5304;48.604;2.096;2023-04-16T00:36:17;17.53;;;9.77;;
10511;SDS011;5304;48.604;2.096;2023-04-16T00:39:02;16.87;;;10.60;;
10511;SDS011;5304;48.604;2.096;2023-04-16T00:41:47;12.87;;;9.60;;
10511;SDS011;5304;48.604;2.096;2023-04-16T00:44:32;16.43;;;10.03;;
10511;SDS011;5304;48.604;2.096;2023-04-16T00:47:19;12.00;;;8.57;;
10511;SDS011;5304;48.604;2.096;2023-04-16T00:50:05;18.47;;;9.60;;
10511;SDS011;5304;48.604;2.096;2023-04-16T00:52:50;14.77;;;10.83;;
10511;SDS011;5304;48.604;2.096;2023-04-16T00:55:35;15.37;;;9.60;;
10511;SDS011;5304;48.604;2.096;2023-04-16T00:58:19;16.33;;;9.70;;
10511;SDS011;5304;48.604;2.096;2023-04-16T01:01:04;21.17;;;9.17;;
10511;SDS011;5304;48.604;2.096;2023-04-16T01:03:49;15.87;;;9.33;;
10511;SDS011;5304;48.604;2.096;2023-04-16T01:06:33;17.83;;;9.20;;
10511;SDS011;5304;48.604;2.096;2023-04-16T01:09:18;14.63;;;8.90;;
10511;SDS011;5304;48.604;2.096;2023-04-16T01:12:03;12.60;;;7.47;;
10511;SDS011;5304;48.604;2.096;2023-04-16T01:14:47;14.20;;;8.87;;
10511;SDS011;5304;48.604;2.096;2023-04-16T01:17:32;14.37;;;8.60;;
10511;SDS011;5304;48.604;2.096;2023-04-16T01:20:17;15.17;;;8.00;;
10511;SDS011;5304;48.604;2.096;2023-04-16T01:23:01;11.23;;;7.00;;
10511;SDS011;5304;48.604;2.096;2023-04-16T01:25:46;13.83;;;7.47;;
10511;SDS011;5304;48.604;2.096;2023-04-16T01:28:30;9.47;;;6.93;;
10511;SDS011;5304;48.604;2.096;2023-04-16T01:31:15;11.40;;;6.97;;
10511;SDS011;5304;48.604;2.096;2023-04-16T01:33:59;10.73;;;6.53;;
10511;SDS011;5304;48.604;2.096;2023-04-16T01:36:43;14.53;;;6.70;;
10511;SDS011;5304;48.604;2.096;2023-04-16T01:39:28;13.33;;;6.27;;
10511;SDS011;5304;48.604;2.096;2023-04-16T01:42:15;11.03;;;6.73;;
10511;SDS011;5304;48.604;2.096;2023-04-16T01:45:00;9.93;;;6.57;;
10511;SDS011;5304;48.604;2.096;2023-04-16T01:47:44;11.80;;;7.17;;
10511;SDS011;5304;48.604;2.096;2023-04-16T01:50:29;12.23;;;8.00;;
10511;SDS011;5304;48.604;2.096;2023-04-16T01:53:14;12.93;;;8.10;;
10511;SDS011;5304;48.604;2.096;2023-04-16T01:55:59;14.17;;;7.87;;
10511;SDS011;5304;48.604;2.096;2023-04-16T01:58:43;13.80;;;7.53;;
10511;SDS011;5304;48.604;2.096;2023-04-16T02:01:29;11.20;;;7.90;;
10511;SDS011;5304;48.604;2.096;2023-04-16T02:04:14;12.13;;;8.53;;
10511;SDS011;5304;48.604;2.096;2023-04-16T02:06:59;14.33;;;8.23;;
10511;SDS011;5304;48.604;2.096;2023-04-16T02:09:43;13.80;;;9.30;;
10511;SDS011;5304;48.604;2.096;2023-04-16T02:12:27;19.73;;;9.27;;
10511;SDS011;5304;48.604;2.096;2023-04-16T02:15:12;16.77;;;10.27;;
10511;SDS011;5304;48.604;2.096;2023-04-16T02:17:59;15.83;;;9.93;;
10511;SDS011;5304;48.604;2.096;2023-04-16T02:20:44;18.43;;;10.47;;
10511;SDS011;5304;48.604;2.096;2023-04-16T02:23:29;22.27;;;10.63;;
10511;SDS011;5304;48.604;2.096;2023-04-16T02:26:14;14.60;;;9.03;;
10511;SDS011;5304;48.604;2.096;2023-04-16T02:28:58;18.03;;;9.10;;
10511;SDS011;5304;48.604;2.096;2023-04-16T02:31:43;17.00;;;9.43;;
10511;SDS011;5304;48.604;2.096;2023-04-16T02:34:27;16.67;;;9.07;;
10511;SDS011;5304;48.604;2.096;2023-04-16T02:37:11;12.43;;;8.57;;
10511;SDS011;5304;48.604;2.096;2023-04-16T02:39:57;15.33;;;9.00;;
10511;SDS011;5304;48.604;2.096;2023-04-16T02:42:42;13.23;;;7.70;;
10511;SDS011;5304;48.604;2.096;2023-04-16T02:45:26;15.40;;;8.57;;
10511;SDS011;5304;48.604;2.096;2023-04-16T02:48:11;15.23;;;8.43;;
10511;SDS011;5304;48.604;2.096;2023-04-16T02:50:56;13.83;;;7.80;;
10511;SDS011;5304;48.604;2.096;2023-04-16T02:53:40;10.47;;;7.73;;
10511;SDS011;5304;48.604;2.096;2023-04-16T02:56:28;13.27;;;7.30;;
10511;SDS011;5304;48.604;2.096;2023-04-16T02:59:13;11.50;;;7.13;;
10511;SDS011;5304;48.604;2.096;2023-04-16T03:01:57;16.03;;;7.67;;
10511;SDS011;5304;48.604;2.096;2023-04-16T03:04:42;13.90;;;7.63;;
10511;SDS011;5304;48.604;2.096;2023-04-16T03:07:26;9.77;;;7.40;;
10511;SDS011;5304;48.604;2.096;2023-04-16T03:10:10;12.47;;;7.90;;
10511;SDS011;5304;48.604;2.096;2023-04-16T03:12:56;15.13;;;7.53;;
10511;SDS011;5304;48.604;2.096;2023-04-16T03:15:46;11.30;;;7.33;;
10511;SDS011;5304;48.604;2.096;2023-04-16T03:18:31;12.63;;;7.37;;
10511;SDS011;5304;48.604;2.096;2023-04-16T03:21:15;11.60;;;7.60;;
10511;SDS011;5304;48.604;2.096;2023-04-16T03:23:59;9.40;;;6.57;;
10511;SDS011;5304;48.604;2.096;2023-04-16T03:26:44;16.00;;;8.03;;
10511;SDS011;5304;48.604;2.096;2023-04-16T03:29:29;11.73;;;7.43;;
10511;SDS011;5304;48.604;2.096;2023-04-16T03:32:13;13.67;;;7.27;;
10511;SDS011;5304;48.604;2.096;2023-04-16T03:34:57;10.87;;;7.27;;
10511;SDS011;5304;48.604;2.096;2023-04-16T03:37:41;9.43;;;6.17;;
10511;SDS011;5304;48.604;2.096;2023-04-16T03:40:26;11.20;;;6.50;;
10511;SDS011;5304;48.604;2.096;2023-04-16T03:43:10;10.63;;;6.20;;
10511;SDS011;5304;48.604;2.096;2023-04-16T03:45:54;11.40;;;5.93;;
10511;SDS011;5304;48.604;2.096;2023-04-16T03:48:39;9.17;;;6.23;;
10511;SDS011;5304;48.604;2.096;2023-04-16T03:51:23;10.80;;;5.97;;
10511;SDS011;5304;48.604;2.096;2023-04-16T03:54:08;9.57;;;6.13;;
10511;SDS011;5304;48.604;2.096;2023-04-16T03:56:53;9.70;;;6.27;;
10511;SDS011;5304;48.604;2.096;2023-04-16T03:59:37;9.17;;;5.77;;
10511;SDS011;5304;48.604;2.096;2023-04-16T04:02:22;10.23;;;5.87;;
10511;SDS011;5304;48.604;2.096;2023-04-16T04:05:06;10.13;;;6.63;;
10511;SDS011;5304;48.604;2.096;2023-04-16T04:07:50;10.57;;;5.20;;
10511;SDS011;5304;48.604;2.096;2023-04-16T04:10:35;8.60;;;5.77;;
10511;SDS011;5304;48.604;2.096;2023-04-16T04:13:19;11.60;;;6.40;;
10511;SDS011;5304;48.604;2.096;2023-04-16T04:16:05;10.63;;;6.73;;
10511;SDS011;5304;48.604;2.096;2023-04-16T04:18:49;9.67;;;6.30;;
10511;SDS011;5304;48.604;2.096;2023-04-16T04:21:34;14.03;;;7.33;;
10511;SDS011;5304;48.604;2.096;2023-04-16T04:24:18;9.77;;;7.07;;
10511;SDS011;5304;48.604;2.096;2023-04-16T04:27:03;12.97;;;7.80;;
10511;SDS011;5304;48.604;2.096;2023-04-16T04:29:47;12.37;;;8.00;;
10511;SDS011;5304;48.604;2.096;2023-04-16T04:32:31;12.13;;;7.97;;
10511;SDS011;5304;48.604;2.096;2023-04-16T04:35:16;11.23;;;7.90;;
10511;SDS011;5304;48.604;2.096;2023-04-16T04:38:00;13.87;;;7.63;;
10511;SDS011;5304;48.604;2.096;2023-04-16T04:40:45;12.17;;;7.60;;
10511;SDS011;5304;48.604;2.096;2023-04-16T04:43:29;10.27;;;7.90;;
10511;SDS011;5304;48.604;2.096;2023-04-16T04:46:14;10.77;;;7.87;;
10511;SDS011;5304;48.604;2.096;2023-04-16T04:48:58;10.80;;;7.13;;
10511;SDS011;5304;48.604;2.096;2023-04-16T04:51:43;9.07;;;6.30;;
10511;SDS011;5304;48.604;2.096;2023-04-16T04:54:27;9.47;;;6.30;;
10511;SDS011;5304;48.604;2.096;2023-04-16T04:57:13;8.00;;;5.40;;
10511;SDS011;5304;48.604;2.096;2023-04-16T04:59:58;14.13;;;6.27;;
10511;SDS011;5304;48.604;2.096;2023-04-16T05:02:43;10.30;;;6.40;;
10511;SDS011;5304;48.604;2.096;2023-04-16T05:05:28;12.57;;;6.73;;
10511;SDS011;5304;48.604;2.096;2023-04-16T05:08:12;11.33;;;5.93;;
10511;SDS011;5304;48.604;2.096;2023-04-16T05:10:56;12.13;;;6.37;;
10511;SDS011;5304;48.604;2.096;2023-04-16T05:13:40;10.93;;;6.23;;
10511;SDS011;5304;48.604;2.096;2023-04-16T05:16:25;11.27;;;6.23;;
10511;SDS011;5304;48.604;2.096;2023-04-16T05:19:09;13.17;;;6.27;;
10511;SDS011;5304;48.604;2.096;2023-04-16T05:21:53;9.63;;;6.33;;
10511;SDS011;5304;48.604;2.096;2023-04-16T05:24:38;8.83;;;6.23;;
10511;SDS011;5304;48.604;2.096;2023-04-16T05:27:22;13.87;;;6.50;;
10511;SDS011;5304;48.604;2.096;2023-04-16T05:30:06;10.67;;;6.73;;
10511;SDS011;5304;48.604;2.096;2023-04-16T05:32:51;11.73;;;6.67;;
10511;SDS011;5304;48.604;2.096;2023-04-16T05:35:36;10.17;;;7.00;;
10511;SDS011;5304;48.604;2.096;2023-04-16T05:38:20;11.37;;;6.63;;
10511;SDS011;5304;48.604;2.096;2023-04-16T05:41:05;12.70;;;6.70;;
10511;SDS011;5304;48.604;2.096;2023-04-16T05:43:49;8.80;;;6.20;;
10511;SDS011;5304;48.604;2.096;2023-04-16T05:46:33;12.33;;;6.73;;
10511;SDS011;5304;48.604;2.096;2023-04-16T05:49:18;12.53;;;6.63;;
10511;SDS011;5304;48.604;2.096;2023-04-16T05:52:05;11.87;;;6.40;;
10511;SDS011;5304;48.604;2.096;2023-04-16T05:54:50;10.90;;;6.87;;
10511;SDS011;5304;48.604;2.096;2023-04-16T05:57:34;13.27;;;6.90;;
10511;SDS011;5304;48.604;2.096;2023-04-16T06:00:19;10.07;;;6.80;;
10511;SDS011;5304;48.604;2.096;2023-04-16T06:03:03;12.77;;;6.73;;
10511;SDS011;5304;48.604;2.096;2023-04-16T06:05:48;10.60;;;6.47;;
10511;SDS011;5304;48.604;2.096;2023-04-16T06:08:32;9.77;;;5.40;;
10511;SDS011;5304;48.604;2.096;2023-04-16T06:11:16;7.77;;;5.20;;
10511;SDS011;5304;48.604;2.096;2023-04-16T06:14:03;11.57;;;5.43;;
10511;SDS011;5304;48.604;2.096;2023-04-16T06:16:48;8.37;;;5.20;;
10511;SDS011;5304;48.604;2.096;2023-04-16T06:19:32;11.57;;;5.50;;
10511;SDS011;5304;48.604;2.096;2023-04-16T06:22:16;8.30;;;5.00;;
10511;SDS011;5304;48.604;2.096;2023-04-16T06:25:01;8.70;;;5.23;;
10511;SDS011;5304;48.604;2.096;2023-04-16T06:27:45;9.53;;;5.87;;
10511;SDS011;5304;48.604;2.096;2023-04-16T06:30:29;9.67;;;5.83;;
10511;SDS011;5304;48.604;2.096;2023-04-16T06:33:14;15.17;;;5.83;;
10511;SDS011;5304;48.604;2.096;2023-04-16T06:35:58;9.57;;;5.90;;
10511;SDS011;5304;48.604;2.096;2023-04-16T06:38:43;7.77;;;5.53;;
10511;SDS011;5304;48.604;2.096;2023-04-16T06:41:27;8.70;;;5.63;;
10511;SDS011;5304;48.604;2.096;2023-04-16T06:44:12;9.40;;;5.80;;
10511;SDS011;5304;48.604;2.096;2023-04-16T06:46:57;8.90;;;5.43;;
10511;SDS011;5304;48.604;2.096;2023-04-16T06:49:41;8.23;;;5.53;;
10511;SDS011;5304;48.604;2.096;2023-04-16T06:52:26;10.53;;;6.17;;
10511;SDS011;5304;48.604;2.096;2023-04-16T06:55:13;11.57;;;6.43;;
10511;SDS011;5304;48.604;2.096;2023-04-16T06:57:58;11.40;;;6.13;;
10511;SDS011;5304;48.604;2.096;2023-04-16T07:00:42;7.80;;;5.97;;
10511;SDS011;5304;48.604;2.096;2023-04-16T07:03:28;9.33;;;6.63;;
10511;SDS011;5304;48.604;2.096;2023-04-16T07:06:12;9.53;;;6.60;;
10511;SDS011;5304;48.604;2.096;2023-04-16T07:08:57;12.67;;;6.30;;
10511;SDS011;5304;48.604;2.096;2023-04-16T07:11:41;7.97;;;6.10;;
10511;SDS011;5304;48.604;2.096;2023-04-16T07:14:27;11.23;;;6.53;;
10511;SDS011;5304;48.604;2.096;2023-04-16T07:17:11;9.70;;;6.10;;
10511;SDS011;5304;48.604;2.096;2023-04-16T07:19:55;11.10;;;6.87;;
10511;SDS011;5304;48.604;2.096;2023-04-16T07:22:40;11.30;;;6.63;;
10511;SDS011;5304;48.604;2.096;2023-04-16T07:25:24;14.07;;;6.87;;
10511;SDS011;5304;48.604;2.096;2023-04-16T07:28:09;9.10;;;6.20;;
10511;SDS011;5304;48.604;2.096;2023-04-16T07:30:54;8.30;;;6.47;;
10511;SDS011;5304;48.604;2.096;2023-04-16T07:33:38;10.77;;;6.70;;
10511;SDS011;5304;48.604;2.096;2023-04-16T07:36:23;10.20;;;7.60;;
10511;SDS011;5304;48.604;2.096;2023-04-16T07:39:07;9.37;;;6.43;;
10511;SDS011;5304;48.604;2.096;2023-04-16T07:41:53;14.30;;;6.33;;
10511;SDS011;5304;48.604;2.096;2023-04-16T07:44:37;12.73;;;7.23;;
10511;SDS011;5304;48.604;2.096;2023-04-16T07:47:21;15.03;;;6.90;;
10511;SDS011;5304;48.604;2.096;2023-04-16T07:50:06;11.23;;;7.47;;
10511;SDS011;5304;48.604;2.096;2023-04-16T07:52:51;11.33;;;7.00;;
10511;SDS011;5304;48.604;2.096;2023-04-16T07:55:35;11.93;;;7.30;;
10511;SDS011;5304;48.604;2.096;2023-04-16T07:58:20;12.50;;;6.83;;
10511;SDS011;5304;48.604;2.096;2023-04-16T08:01:05;9.45;;;7.00;;
10511;SDS011;5304;48.604;2.096;2023-04-16T08:03:49;10.40;;;6.70;;
10511;SDS011;5304;48.604;2.096;2023-04-16T08:06:34;14.73;;;6.53;;
10511;SDS011;5304;48.604;2.096;2023-04-16T08:09:19;11.93;;;6.53;;
10511;SDS011;5304;48.604;2.096;2023-04-16T08:12:06;12.48;;;7.15;;
10511;SDS011;5304;48.604;2.096;2023-04-16T08:14:50;13.48;;;6.30;;
10511;SDS011;5304;48.604;2.096;2023-04-16T08:17:34;11.70;;;6.72;;
10511;SDS011;5304;48.604;2.096;2023-04-16T08:20:20;12.75;;;7.07;;
10511;SDS011;5304;48.604;2.096;2023-04-16T08:23:05;14.32;;;7.00;;
10511;SDS011;5304;48.604;2.096;2023-04-16T08:25:49;13.10;;;6.95;;
10511;SDS011;5304;48.604;2.096;2023-04-16T08:28:34;8.52;;;6.10;;
10511;SDS011;5304;48.604;2.096;2023-04-16T08:31:18;14.40;;;6.63;;
10511;SDS011;5304;48.604;2.096;2023-04-16T08:34:04;9.38;;;6.00;;
10511;SDS011;5304;48.604;2.096;2023-04-16T08:36:49;13.73;;;6.18;;
10511;SDS011;5304;48.604;2.096;2023-04-16T08:39:33;12.60;;;6.47;;
10511;SDS011;5304;48.604;2.096;2023-04-16T08:42:23;11.45;;;6.10;;
10511;SDS011;5304;48.604;2.096;2023-04-16T08:45:16;10.40;;;5.73;;
10511;SDS011;5304;48.604;2.096;2023-04-16T08:48:00;11.30;;;5.60;;
10511;SDS011;5304;48.604;2.096;2023-04-16T08:50:48;9.10;;;5.80;;
10511;SDS011;5304;48.604;2.096;2023-04-16T08:53:52;8.33;;;5.37;;
10511;SDS011;5304;48.604;2.096;2023-04-16T08:56:45;12.03;;;5.70;;
10511;SDS011;5304;48.604;2.096;2023-04-16T08:59:31;10.73;;;6.07;;
10511;SDS011;5304;48.604;2.096;2023-04-16T09:02:16;11.13;;;5.80;;
10511;SDS011;5304;48.604;2.096;2023-04-16T09:05:02;9.43;;;5.77;;
10511;SDS011;5304;48.604;2.096;2023-04-16T09:07:49;11.37;;;6.03;;
10511;SDS011;5304;48.604;2.096;2023-04-16T09:10:35;9.93;;;5.90;;
10511;SDS011;5304;48.604;2.096;2023-04-16T09:13:20;11.03;;;4.97;;
10511;SDS011;5304;48.604;2.096;2023-04-16T09:16:06;6.53;;;5.10;;
10511;SDS011;5304;48.604;2.096;2023-04-16T09:18:52;9.53;;;4.53;;
10511;SDS011;5304;48.604;2.096;2023-04-16T09:21:36;9.60;;;5.33;;
10511;SDS011;5304;48.604;2.096;2023-04-16T09:24:23;7.37;;;4.37;;
10511;SDS011;5304;48.604;2.096;2023-04-16T09:27:08;7.83;;;4.47;;
10511;SDS011;5304;48.604;2.096;2023-04-16T09:29:54;6.30;;;4.10;;
10511;SDS011;5304;48.604;2.096;2023-04-16T09:32:39;6.47;;;4.07;;
10511;SDS011;5304;48.604;2.096;2023-04-16T09:35:23;9.20;;;4.30;;
10511;SDS011;5304;48.604;2.096;2023-04-16T09:38:08;7.40;;;4.47;;
10511;SDS011;5304;48.604;2.096;2023-04-16T09:41:05;8.13;;;4.20;;
10511;SDS011;5304;48.604;2.096;2023-04-16T09:43:54;10.77;;;4.13;;
10511;SDS011;5304;48.604;2.096;2023-04-16T09:46:40;8.33;;;4.20;;
10511;SDS011;5304;48.604;2.096;2023-04-16T09:49:25;6.27;;;3.87;;
10511;SDS011;5304;48.604;2.096;2023-04-16T09:52:16;5.30;;;3.40;;
10511;SDS011;5304;48.604;2.096;2023-04-16T09:55:02;6.47;;;3.77;;
10511;SDS011;5304;48.604;2.096;2023-04-16T09:57:46;8.07;;;3.90;;
10511;SDS011;5304;48.604;2.096;2023-04-16T10:00:31;7.03;;;4.03;;
10511;SDS011;5304;48.604;2.096;2023-04-16T10:03:15;5.87;;;3.50;;
10511;SDS011;5304;48.604;2.096;2023-04-16T10:08:58;4.87;;;3.13;;
10511;SDS011;5304;48.604;2.096;2023-04-16T10:11:42;9.47;;;3.50;;
10511;SDS011;5304;48.604;2.096;2023-04-16T10:14:28;5.70;;;3.50;;
10511;SDS011;5304;48.604;2.096;2023-04-16T10:17:12;6.07;;;4.10;;
10511;SDS011;5304;48.604;2.096;2023-04-16T10:19:58;6.10;;;4.00;;
10511;SDS011;5304;48.604;2.096;2023-04-16T10:22:44;6.70;;;4.23;;
10511;SDS011;5304;48.604;2.096;2023-04-16T10:25:29;6.73;;;4.20;;
10511;SDS011;5304;48.604;2.096;2023-04-16T10:28:15;5.00;;;3.50;;
10511;SDS011;5304;48.604;2.096;2023-04-16T10:31:00;6.60;;;4.30;;
10511;SDS011;5304;48.604;2.096;2023-04-16T10:33:46;8.40;;;4.53;;
10511;SDS011;5304;48.604;2.096;2023-04-16T10:36:32;6.47;;;4.17;;
10511;SDS011;5304;48.604;2.096;2023-04-16T10:39:20;8.47;;;4.13;;
10511;SDS011;5304;48.604;2.096;2023-04-16T10:42:07;8.57;;;4.53;;
10511;SDS011;5304;48.604;2.096;2023-04-16T10:44:53;10.23;;;4.97;;
10511;SDS011;5304;48.604;2.096;2023-04-16T10:47:43;8.23;;;5.10;;
10511;SDS011;5304;48.604;2.096;2023-04-16T10:50:33;6.23;;;4.53;;
10511;SDS011;5304;48.604;2.096;2023-04-16T10:53:22;7.60;;;4.80;;
10511;SDS011;5304;48.604;2.096;2023-04-16T10:56:10;7.50;;;5.13;;
10511;SDS011;5304;48.604;2.096;2023-04-16T10:58:55;6.87;;;4.87;;
10511;SDS011;5304;48.604;2.096;2023-04-16T11:01:40;6.30;;;4.93;;
10511;SDS011;5304;48.604;2.096;2023-04-16T11:04:28;10.23;;;5.03;;
10511;SDS011;5304;48.604;2.096;2023-04-16T11:07:19;8.97;;;4.63;;
10511;SDS011;5304;48.604;2.096;2023-04-16T11:10:06;6.93;;;4.90;;
10511;SDS011;5304;48.604;2.096;2023-04-16T11:12:55;8.43;;;4.20;;
10511;SDS011;5304;48.604;2.096;2023-04-16T11:15:40;10.57;;;4.53;;
10511;SDS011;5304;48.604;2.096;2023-04-16T11:18:25;5.90;;;4.03;;
10511;SDS011;5304;48.604;2.096;2023-04-16T11:21:10;6.97;;;3.90;;
10511;SDS011;5304;48.604;2.096;2023-04-16T11:23:56;7.70;;;4.17;;
10511;SDS011;5304;48.604;2.096;2023-04-16T11:26:40;6.37;;;3.90;;
10511;SDS011;5304;48.604;2.096;2023-04-16T11:29:25;8.23;;;4.10;;
10511;SDS011;5304;48.604;2.096;2023-04-16T11:32:10;5.97;;;3.63;;
10511;SDS011;5304;48.604;2.096;2023-04-16T11:35:16;6.43;;;4.03;;
10511;SDS011;5304;48.604;2.096;2023-04-16T11:38:04;7.87;;;4.00;;
10511;SDS011;5304;48.604;2.096;2023-04-16T11:40:50;9.63;;;4.53;;
10511;SDS011;5304;48.604;2.096;2023-04-16T11:43:36;7.97;;;4.63;;
10511;SDS011;5304;48.604;2.096;2023-04-16T11:46:21;6.13;;;4.13;;
10511;SDS011;5304;48.604;2.096;2023-04-16T11:49:05;7.33;;;4.50;;
10511;SDS011;5304;48.604;2.096;2023-04-16T11:51:51;5.60;;;3.83;;
10511;SDS011;5304;48.604;2.096;2023-04-16T11:54:35;4.80;;;3.53;;
10511;SDS011;5304;48.604;2.096;2023-04-16T11:57:24;6.50;;;3.87;;
10511;SDS011;5304;48.604;2.096;2023-04-16T12:00:09;4.83;;;3.57;;
10511;SDS011;5304;48.604;2.096;2023-04-16T12:02:56;7.03;;;3.83;;
10511;SDS011;5304;48.604;2.096;2023-04-16T12:05:41;5.47;;;4.07;;
10511;SDS011;5304;48.604;2.096;2023-04-16T12:08:28;6.97;;;4.27;;
10511;SDS011;5304;48.604;2.096;2023-04-16T12:11:13;5.03;;;3.83;;
10511;SDS011;5304;48.604;2.096;2023-04-16T12:16:52;5.43;;;3.73;;
10511;SDS011;5304;48.604;2.096;2023-04-16T12:19:46;6.50;;;3.37;;
10511;SDS011;5304;48.604;2.096;2023-04-16T12:22:32;6.30;;;3.70;;
10511;SDS011;5304;48.604;2.096;2023-04-16T12:25:21;5.20;;;3.43;;
10511;SDS011;5304;48.604;2.096;2023-04-16T12:28:07;4.70;;;3.40;;
10511;SDS011;5304;48.604;2.096;2023-04-16T12:30:52;4.77;;;3.23;;
10511;SDS011;5304;48.604;2.096;2023-04-16T12:33:37;4.07;;;3.40;;
10511;SDS011;5304;48.604;2.096;2023-04-16T12:36:21;4.60;;;2.90;;
10511;SDS011;5304;48.604;2.096;2023-04-16T12:39:05;5.33;;;3.60;;
10511;SDS011;5304;48.604;2.096;2023-04-16T12:41:50;4.83;;;3.47;;
10511;SDS011;5304;48.604;2.096;2023-04-16T12:44:34;5.77;;;3.33;;
10511;SDS011;5304;48.604;2.096;2023-04-16T12:47:19;5.93;;;3.17;;
10511;SDS011;5304;48.604;2.096;2023-04-16T12:50:06;6.40;;;3.70;;
10511;SDS011;5304;48.604;2.096;2023-04-16T12:52:50;6.07;;;3.10;;
10511;SDS011;5304;48.604;2.096;2023-04-16T12:55:35;3.50;;;3.17;;
10511;SDS011;5304;48.604;2.096;2023-04-16T12:58:20;4.50;;;3.00;;
10511;SDS011;5304;48.604;2.096;2023-04-16T13:01:04;5.87;;;3.00;;
10511;SDS011;5304;48.604;2.096;2023-04-16T13:03:48;4.10;;;2.93;;
10511;SDS011;5304;48.604;2.096;2023-04-16T13:06:33;5.00;;;2.73;;
10511;SDS011;5304;48.604;2.096;2023-04-16T13:09:19;5.57;;;2.90;;
10511;SDS011;5304;48.604;2.096;2023-04-16T13:12:03;3.57;;;2.60;;
10511;SDS011;5304;48.604;2.096;2023-04-16T13:14:48;3.47;;;2.30;;
10511;SDS011;5304;48.604;2.096;2023-04-16T13:17:32;3.60;;;2.10;;
10511;SDS011;5304;48.604;2.096;2023-04-16T13:20:17;3.53;;;2.00;;
10511;SDS011;5304;48.604;2.096;2023-04-16T13:23:00;4.67;;;2.40;;
10511;SDS011;5304;48.604;2.096;2023-04-16T13:25:47;5.57;;;2.07;;
10511;SDS011;5304;48.604;2.096;2023-04-16T13:28:31;4.53;;;2.33;;
10511;SDS011;5304;48.604;2.096;2023-04-16T13:31:16;3.73;;;2.40;;
10511;SDS011;5304;48.604;2.096;2023-04-16T13:34:04;2.53;;;2.00;;
10511;SDS011;5304;48.604;2.096;2023-04-16T13:36:49;4.60;;;2.43;;
10511;SDS011;5304;48.604;2.096;2023-04-16T13:39:33;3.90;;;2.27;;
10511;SDS011;5304;48.604;2.096;2023-04-16T13:42:17;3.20;;;2.33;;
10511;SDS011;5304;48.604;2.096;2023-04-16T13:45:02;3.53;;;2.30;;
10511;SDS011;5304;48.604;2.096;2023-04-16T13:47:46;4.10;;;2.20;;
10511;SDS011;5304;48.604;2.096;2023-04-16T13:50:31;4.37;;;2.53;;
10511;SDS011;5304;48.604;2.096;2023-04-16T13:53:15;4.40;;;2.50;;
10511;SDS011;5304;48.604;2.096;2023-04-16T13:56:00;4.40;;;2.10;;
10511;SDS011;5304;48.604;2.096;2023-04-16T13:58:46;2.83;;;2.30;;
10511;SDS011;5304;48.604;2.096;2023-04-16T14:01:31;2.70;;;2.00;;
10511;SDS011;5304;48.604;2.096;2023-04-16T14:04:16;2.97;;;2.07;;
10511;SDS011;5304;48.604;2.096;2023-04-16T14:07:00;2.20;;;1.83;;
10511;SDS011;5304;48.604;2.096;2023-04-16T14:09:44;3.87;;;2.20;;
10511;SDS011;5304;48.604;2.096;2023-04-16T14:12:29;2.47;;;2.10;;
10511;SDS011;5304;48.604;2.096;2023-04-16T14:15:14;3.13;;;2.27;;
10511;SDS011;5304;48.604;2.096;2023-04-16T14:17:58;4.13;;;2.40;;
10511;SDS011;5304;48.604;2.096;2023-04-16T14:20:43;2.30;;;2.07;;
10511;SDS011;5304;48.604;2.096;2023-04-16T14:23:28;2.10;;;1.90;;
10511;SDS011;5304;48.604;2.096;2023-04-16T14:26:12;3.87;;;2.10;;
10511;SDS011;5304;48.604;2.096;2023-04-16T14:28:57;3.37;;;2.10;;
10511;SDS011;5304;48.604;2.096;2023-04-16T14:31:41;4.40;;;1.90;;
10511;SDS011;5304;48.604;2.096;2023-04-16T14:34:26;2.30;;;2.07;;
10511;SDS011;5304;48.604;2.096;2023-04-16T14:37:10;3.73;;;2.30;;
10511;SDS011;5304;48.604;2.096;2023-04-16T14:39:55;3.87;;;2.23;;
10511;SDS011;5304;48.604;2.096;2023-04-16T14:42:39;2.93;;;2.17;;
10511;SDS011;5304;48.604;2.096;2023-04-16T14:45:24;2.43;;;2.10;;
10511;SDS011;5304;48.604;2.096;2023-04-16T14:48:11;2.80;;;2.03;;
10511;SDS011;5304;48.604;2.096;2023-04-16T14:50:55;3.73;;;2.37;;
10511;SDS011;5304;48.604;2.096;2023-04-16T14:53:40;3.60;;;2.40;;
10511;SDS011;5304;48.604;2.096;2023-04-16T14:56:24;4.30;;;2.07;;
10511;SDS011;5304;48.604;2.096;2023-04-16T14:59:09;4.53;;;2.43;;
10511;SDS011;5304;48.604;2.096;2023-04-16T15:01:54;3.10;;;2.03;;
10511;SDS011;5304;48.604;2.096;2023-04-16T15:04:39;4.17;;;2.33;;
10511;SDS011;5304;48.604;2.096;2023-04-16T15:07:24;5.13;;;1.90;;
10511;SDS011;5304;48.604;2.096;2023-04-16T15:10:11;4.97;;;2.77;;
10511;SDS011;5304;48.604;2.096;2023-04-16T15:12:55;3.97;;;2.33;;
10511;SDS011;5304;48.604;2.096;2023-04-16T15:15:40;2.67;;;2.30;;
10511;SDS011;5304;48.604;2.096;2023-04-16T15:18:24;3.10;;;2.50;;
10511;SDS011;5304;48.604;2.096;2023-04-16T15:21:09;4.60;;;2.47;;
10511;SDS011;5304;48.604;2.096;2023-04-16T15:23:54;2.57;;;1.97;;
10511;SDS011;5304;48.604;2.096;2023-04-16T15:26:38;4.80;;;2.43;;
10511;SDS011;5304;48.604;2.096;2023-04-16T15:29:23;4.03;;;2.20;;
10511;SDS011;5304;48.604;2.096;2023-04-16T15:32:07;4.17;;;2.37;;
10511;SDS011;5304;48.604;2.096;2023-04-16T15:34:52;4.93;;;2.43;;
10511;SDS011;5304;48.604;2.096;2023-04-16T15:37:36;4.57;;;2.47;;
10511;SDS011;5304;48.604;2.096;2023-04-16T15:40:21;4.33;;;2.90;;
10511;SDS011;5304;48.604;2.096;2023-04-16T15:43:07;4.20;;;2.70;;
10511;SDS011;5304;48.604;2.096;2023-04-16T15:45:52;3.87;;;2.13;;
10511;SDS011;5304;48.604;2.096;2023-04-16T15:48:36;2.93;;;2.50;;
10511;SDS011;5304;48.604;2.096;2023-04-16T15:51:21;7.83;;;3.17;;
10511;SDS011;5304;48.604;2.096;2023-04-16T15:54:06;4.37;;;2.87;;
10511;SDS011;5304;48.604;2.096;2023-04-16T15:56:51;5.77;;;3.17;;
10511;SDS011;5304;48.604;2.096;2023-04-16T15:59:35;5.83;;;3.17;;
10511;SDS011;5304;48.604;2.096;2023-04-16T16:02:19;6.60;;;3.07;;
10511;SDS011;5304;48.604;2.096;2023-04-16T16:05:04;4.40;;;2.60;;
10511;SDS011;5304;48.604;2.096;2023-04-16T16:07:52;3.07;;;2.77;;
10511;SDS011;5304;48.604;2.096;2023-04-16T16:10:36;3.80;;;2.50;;
10511;SDS011;5304;48.604;2.096;2023-04-16T16:13:20;5.83;;;2.87;;
10511;SDS011;5304;48.604;2.096;2023-04-16T16:16:05;5.63;;;3.37;;
10511;SDS011;5304;48.604;2.096;2023-04-16T16:18:49;4.87;;;2.40;;
10511;SDS011;5304;48.604;2.096;2023-04-16T16:21:34;4.23;;;2.80;;
10511;SDS011;5304;48.604;2.096;2023-04-16T16:24:18;4.63;;;3.10;;
10511;SDS011;5304;48.604;2.096;2023-04-16T16:27:03;3.77;;;2.90;;
10511;SDS011;5304;48.604;2.096;2023-04-16T16:29:48;3.83;;;2.60;;
10511;SDS011;5304;48.604;2.096;2023-04-16T16:32:32;3.53;;;2.83;;
10511;SDS011;5304;48.604;2.096;2023-04-16T16:35:17;4.73;;;2.60;;
10511;SDS011;5304;48.604;2.096;2023-04-16T16:38:01;5.40;;;3.03;;
10511;SDS011;5304;48.604;2.096;2023-04-16T16:40:45;4.90;;;2.67;;
10511;SDS011;5304;48.604;2.096;2023-04-16T16:43:30;3.70;;;2.40;;
10511;SDS011;5304;48.604;2.096;2023-04-16T16:46:15;4.83;;;2.40;;
10511;SDS011;5304;48.604;2.096;2023-04-16T16:48:59;5.40;;;2.90;;